Terminal Aerodrome Forecast
Issued by NWS Cleveland, OH

Home | Current Version | Previous Version | Graphics & Text | Print | Product List | Glossary Off
Versions: 1 2 3 4 5 6 7 8 9 10 11 12 13 14 15 16 17 18 19 20 21

000
FTUS41 KCLE 010500
TAFCAK
TAF
KCAK 010530Z 0106/0206 23006KT P6SM OVC045
     FM010830 20005KT 4SM -SN SCT008 OVC020
     FM011000 20006KT 1 1/2SM -SN OVC008
     FM011600 12008KT 3/4SM -SN OVC006
     FM012100 09008KT 1/2SM SN OVC003
     FM020200 08010KT 2SM -RASNPL OVC005=

USA.gov is the U.S. government's official web portal to all federal, state and local government web resources and services.